ANA581 RJCM-RJCH
Flight info
| Callsign | ANA581 |
|---|---|
| Flight time | 0h 43m |
| Altitude | 30000 |
| Route | DCT NODUK Y14 MKE DCT UPLOK PATRAN |
| Aircraft | A321/M-SDE3FGHIRWY/LB1 |
Departure
| Time | 2026-04-26 15:37 |
|---|---|
| Airport | Memanbetsu Airport (RJCM) |
Arrival
| Time | 2026-04-26 16:21 |
|---|---|
| Airport | Hakodate Airport (RJCH) |
| Time | Latitude | Longitude | Altitude | Speed | Heading |
|---|---|---|---|---|---|
| 2026-04-26 15:09 | 43.88153 | 144.15968 | 104 ft | 0 kts | 264° |
| 2026-04-26 15:12 | 43.88210 | 144.15962 | 103 ft | 0 kts | 264° |
| 2026-04-26 15:28 | 43.88210 | 144.15964 | 103 ft | 2 kts | 265° |
| 2026-04-26 15:28 | 43.88212 | 144.15985 | 103 ft | 2 kts | 264° |
| 2026-04-26 15:29 | 43.88213 | 144.16005 | 103 ft | 2 kts | 265° |
| 2026-04-26 15:29 | 43.88215 | 144.16026 | 103 ft | 2 kts | 264° |
| 2026-04-26 15:29 | 43.88217 | 144.16067 | 104 ft | 2 kts | 264° |
| 2026-04-26 15:30 | 43.88220 | 144.16109 | 104 ft | 2 kts | 265° |
| 2026-04-26 15:30 | 43.88220 | 144.16133 | 103 ft | 2 kts | 295° |
| 2026-04-26 15:30 | 43.88208 | 144.16151 | 103 ft | 2 kts | 332° |
| 2026-04-26 15:31 | 43.88197 | 144.16157 | 103 ft | 1 kts | 356° |
| 2026-04-26 15:31 | 43.88192 | 144.16157 | 103 ft | 0 kts | 355° |
| 2026-04-26 15:32 | 43.88201 | 144.16156 | 103 ft | 3 kts | 355° |
| 2026-04-26 15:33 | 43.88245 | 144.16151 | 102 ft | 8 kts | 355° |
| 2026-04-26 15:33 | 43.88318 | 144.16142 | 101 ft | 12 kts | 354° |
| 2026-04-26 15:33 | 43.88420 | 144.16128 | 99 ft | 17 kts | 354° |
| 2026-04-26 15:33 | 43.88555 | 144.16112 | 97 ft | 22 kts | 354° |
| 2026-04-26 15:34 | 43.88726 | 144.16089 | 94 ft | 27 kts | 355° |
| 2026-04-26 15:34 | 43.88914 | 144.16064 | 92 ft | 27 kts | 354° |
| 2026-04-26 15:34 | 43.89043 | 144.16049 | 90 ft | 12 kts | 352° |
| 2026-04-26 15:34 | 43.89129 | 144.16046 | 90 ft | 12 kts | 27° |
| 2026-04-26 15:35 | 43.89158 | 144.16119 | 88 ft | 0 kts | 84° |
| 2026-04-26 15:36 | 43.89159 | 144.16142 | 88 ft | 5 kts | 85° |
| 2026-04-26 15:36 | 43.89161 | 144.16220 | 87 ft | 8 kts | 101° |
| 2026-04-26 15:36 | 43.89108 | 144.16267 | 87 ft | 10 kts | 170° |
| 2026-04-26 15:36 | 43.89034 | 144.16277 | 88 ft | 13 kts | 175° |
| 2026-04-26 15:37 | 43.88728 | 144.16316 | 91 ft | 81 kts | 174° |
| 2026-04-26 15:37 | 43.87940 | 144.16419 | 98 ft | 145 kts | 174° |
| 2026-04-26 15:37 | 43.86808 | 144.16544 | 443 ft | 169 kts | 175° |
| 2026-04-26 15:37 | 43.85663 | 144.16609 | 1159 ft | 167 kts | 184° |
| 2026-04-26 15:38 | 43.84552 | 144.16394 | 1979 ft | 161 kts | 195° |
| 2026-04-26 15:38 | 43.83506 | 144.15875 | 2463 ft | 165 kts | 206° |
| 2026-04-26 15:38 | 43.82466 | 144.15013 | 2781 ft | 181 kts | 217° |
| 2026-04-26 15:38 | 43.81533 | 144.13792 | 3157 ft | 194 kts | 229° |
| 2026-04-26 15:39 | 43.80749 | 144.12192 | 3535 ft | 208 kts | 241° |
| 2026-04-26 15:39 | 43.80048 | 144.10347 | 3895 ft | 226 kts | 244° |
| 2026-04-26 15:39 | 43.79340 | 144.08330 | 4277 ft | 243 kts | 244° |
| 2026-04-26 15:39 | 43.78840 | 144.06891 | 4582 ft | 254 kts | 245° |
| 2026-04-26 15:40 | 43.77811 | 144.03954 | 5641 ft | 257 kts | 245° |
| 2026-04-26 15:40 | 43.77034 | 144.01761 | 6538 ft | 256 kts | 245° |
| 2026-04-26 15:40 | 43.76256 | 143.99573 | 7388 ft | 256 kts | 245° |
| 2026-04-26 15:40 | 43.75471 | 143.97369 | 8183 ft | 258 kts | 245° |
| 2026-04-26 15:41 | 43.74681 | 143.95151 | 8956 ft | 261 kts | 244° |
| 2026-04-26 15:41 | 43.73880 | 143.92912 | 9722 ft | 264 kts | 244° |
| 2026-04-26 15:41 | 43.73061 | 143.90628 | 10449 ft | 269 kts | 244° |
| 2026-04-26 15:41 | 43.72211 | 143.88257 | 10859 ft | 284 kts | 244° |
| 2026-04-26 15:42 | 43.71307 | 143.85747 | 11179 ft | 302 kts | 244° |
| 2026-04-26 15:42 | 43.70351 | 143.83095 | 11574 ft | 315 kts | 243° |
| 2026-04-26 15:42 | 43.69375 | 143.80388 | 12247 ft | 319 kts | 243° |
| 2026-04-26 15:42 | 43.68386 | 143.77650 | 12971 ft | 321 kts | 243° |
| 2026-04-26 15:43 | 43.67395 | 143.74904 | 13625 ft | 324 kts | 243° |
| 2026-04-26 15:43 | 43.66251 | 143.72194 | 14284 ft | 326 kts | 237° |
| 2026-04-26 15:43 | 43.63318 | 143.67413 | 15528 ft | 332 kts | 225° |
| 2026-04-26 15:44 | 43.61645 | 143.65242 | 16140 ft | 334 kts | 224° |
| 2026-04-26 15:44 | 43.58215 | 143.60870 | 17297 ft | 339 kts | 224° |
| 2026-04-26 15:44 | 43.56499 | 143.58684 | 17839 ft | 342 kts | 224° |
| 2026-04-26 15:45 | 43.52994 | 143.54213 | 18970 ft | 345 kts | 224° |
| 2026-04-26 15:45 | 43.51231 | 143.51964 | 19509 ft | 347 kts | 224° |
| 2026-04-26 15:46 | 43.47704 | 143.47476 | 20605 ft | 350 kts | 225° |
| 2026-04-26 15:46 | 43.45897 | 143.45180 | 21139 ft | 351 kts | 225° |
| 2026-04-26 15:46 | 43.44102 | 143.42897 | 21620 ft | 354 kts | 225° |
| 2026-04-26 15:46 | 43.42890 | 143.41359 | 21959 ft | 355 kts | 225° |
| 2026-04-26 15:47 | 43.40467 | 143.38292 | 22616 ft | 358 kts | 225° |
| 2026-04-26 15:47 | 43.36798 | 143.33652 | 23584 ft | 361 kts | 225° |
| 2026-04-26 15:47 | 43.34972 | 143.31340 | 24048 ft | 363 kts | 225° |
| 2026-04-26 15:48 | 43.33105 | 143.28981 | 24498 ft | 365 kts | 225° |
| 2026-04-26 15:48 | 43.31229 | 143.26616 | 24916 ft | 368 kts | 225° |
| 2026-04-26 15:48 | 43.29345 | 143.24237 | 25331 ft | 370 kts | 225° |
| 2026-04-26 15:48 | 43.27448 | 143.21848 | 25765 ft | 372 kts | 225° |
| 2026-04-26 15:49 | 43.25538 | 143.19444 | 26208 ft | 373 kts | 225° |
| 2026-04-26 15:49 | 43.23651 | 143.17067 | 26632 ft | 374 kts | 225° |
| 2026-04-26 15:49 | 43.21706 | 143.14624 | 26993 ft | 377 kts | 226° |
| 2026-04-26 15:49 | 43.19799 | 143.12230 | 27454 ft | 376 kts | 226° |
| 2026-04-26 15:50 | 43.17865 | 143.09808 | 28064 ft | 372 kts | 226° |
| 2026-04-26 15:50 | 43.15982 | 143.07449 | 28593 ft | 370 kts | 227° |
| 2026-04-26 15:50 | 43.14088 | 143.05075 | 29041 ft | 369 kts | 227° |
| 2026-04-26 15:50 | 43.12227 | 143.02672 | 29438 ft | 369 kts | 229° |
| 2026-04-26 15:51 | 43.10446 | 143.00142 | 29807 ft | 369 kts | 232° |
| 2026-04-26 15:51 | 43.08776 | 142.97519 | 29978 ft | 369 kts | 234° |
| 2026-04-26 15:51 | 43.07198 | 142.94762 | 29979 ft | 368 kts | 236° |
| 2026-04-26 15:52 | 43.04127 | 142.89180 | 29983 ft | 369 kts | 237° |
| 2026-04-26 15:52 | 43.01054 | 142.83597 | 29991 ft | 369 kts | 237° |
| 2026-04-26 15:53 | 42.97979 | 142.78027 | 29997 ft | 367 kts | 237° |
| 2026-04-26 15:53 | 42.94895 | 142.72446 | 30000 ft | 367 kts | 237° |
| 2026-04-26 15:54 | 42.91828 | 142.66899 | 29999 ft | 366 kts | 237° |
| 2026-04-26 15:54 | 42.88766 | 142.61381 | 30010 ft | 366 kts | 237° |
| 2026-04-26 15:55 | 42.85699 | 142.55849 | 30002 ft | 364 kts | 236° |
| 2026-04-26 15:55 | 42.82653 | 142.50378 | 29995 ft | 364 kts | 237° |
| 2026-04-26 15:56 | 42.79691 | 142.44833 | 30008 ft | 361 kts | 240° |
| 2026-04-26 15:56 | 42.76900 | 142.39111 | 29993 ft | 361 kts | 239° |
| 2026-04-26 15:57 | 42.74122 | 142.33443 | 29993 ft | 362 kts | 239° |
| 2026-04-26 15:57 | 42.71339 | 142.27765 | 29988 ft | 362 kts | 239° |
| 2026-04-26 15:58 | 42.68549 | 142.22070 | 29992 ft | 361 kts | 238° |
| 2026-04-26 15:58 | 42.65757 | 142.16396 | 29994 ft | 360 kts | 238° |
| 2026-04-26 15:59 | 42.62985 | 142.10762 | 29993 ft | 361 kts | 239° |
| 2026-04-26 15:59 | 42.60216 | 142.05144 | 29988 ft | 358 kts | 239° |
| 2026-04-26 16:00 | 42.57448 | 141.99538 | 29995 ft | 360 kts | 239° |
| 2026-04-26 16:00 | 42.54673 | 141.93941 | 30001 ft | 358 kts | 239° |
| 2026-04-26 16:01 | 42.51864 | 141.88374 | 29973 ft | 358 kts | 238° |
| 2026-04-26 16:01 | 42.49054 | 141.82820 | 29993 ft | 358 kts | 238° |
| 2026-04-26 16:02 | 42.46249 | 141.77277 | 29347 ft | 354 kts | 238° |
| 2026-04-26 16:02 | 42.44822 | 141.74446 | 28057 ft | 367 kts | 238° |
| 2026-04-26 16:02 | 42.43333 | 141.71500 | 26763 ft | 378 kts | 237° |
| 2026-04-26 16:02 | 42.42326 | 141.69516 | 26347 ft | 374 kts | 237° |
| 2026-04-26 16:03 | 42.40329 | 141.65587 | 25673 ft | 364 kts | 237° |
| 2026-04-26 16:03 | 42.38881 | 141.62741 | 25141 ft | 359 kts | 237° |
| 2026-04-26 16:03 | 42.37405 | 141.59848 | 24541 ft | 356 kts | 237° |
| 2026-04-26 16:03 | 42.35977 | 141.57040 | 23959 ft | 354 kts | 236° |
| 2026-04-26 16:04 | 42.34551 | 141.54245 | 23379 ft | 351 kts | 236° |
| 2026-04-26 16:04 | 42.33125 | 141.51453 | 22794 ft | 350 kts | 236° |
| 2026-04-26 16:04 | 42.31710 | 141.48683 | 22231 ft | 348 kts | 236° |
| 2026-04-26 16:04 | 42.30302 | 141.45935 | 21651 ft | 347 kts | 236° |
| 2026-04-26 16:05 | 42.28906 | 141.43205 | 21099 ft | 346 kts | 236° |
| 2026-04-26 16:05 | 42.27504 | 141.40466 | 20538 ft | 345 kts | 236° |
| 2026-04-26 16:05 | 42.26123 | 141.37772 | 19981 ft | 344 kts | 236° |
| 2026-04-26 16:05 | 42.24742 | 141.35075 | 19428 ft | 343 kts | 236° |
| 2026-04-26 16:06 | 42.23389 | 141.32445 | 18892 ft | 342 kts | 235° |
| 2026-04-26 16:06 | 42.22039 | 141.29816 | 18353 ft | 342 kts | 235° |
| 2026-04-26 16:06 | 42.20675 | 141.27170 | 17806 ft | 341 kts | 235° |
| 2026-04-26 16:06 | 42.19317 | 141.24525 | 17277 ft | 340 kts | 235° |
| 2026-04-26 16:07 | 42.17971 | 141.21915 | 16747 ft | 340 kts | 235° |
| 2026-04-26 16:07 | 42.16620 | 141.19290 | 16204 ft | 339 kts | 235° |
| 2026-04-26 16:07 | 42.15241 | 141.16615 | 15639 ft | 339 kts | 235° |
| 2026-04-26 16:07 | 42.13865 | 141.13951 | 15094 ft | 339 kts | 234° |
| 2026-04-26 16:08 | 42.12501 | 141.11316 | 14528 ft | 339 kts | 234° |
| 2026-04-26 16:08 | 42.11138 | 141.08679 | 13986 ft | 338 kts | 234° |
| 2026-04-26 16:08 | 42.09777 | 141.06056 | 13414 ft | 338 kts | 235° |
| 2026-04-26 16:08 | 42.08435 | 141.03468 | 12853 ft | 337 kts | 234° |
| 2026-04-26 16:09 | 42.07105 | 141.00902 | 12285 ft | 337 kts | 234° |
| 2026-04-26 16:09 | 42.05783 | 140.98355 | 11709 ft | 336 kts | 234° |
| 2026-04-26 16:09 | 42.04438 | 140.95770 | 11146 ft | 333 kts | 234° |
| 2026-04-26 16:09 | 42.03142 | 140.93239 | 10647 ft | 329 kts | 238° |
| 2026-04-26 16:10 | 42.02171 | 140.90511 | 10435 ft | 317 kts | 250° |
| 2026-04-26 16:10 | 42.01644 | 140.87741 | 10224 ft | 306 kts | 258° |
| 2026-04-26 16:10 | 42.01272 | 140.84964 | 10084 ft | 292 kts | 259° |
| 2026-04-26 16:10 | 42.00940 | 140.82350 | 9851 ft | 284 kts | 259° |
| 2026-04-26 16:11 | 42.00599 | 140.79715 | 9437 ft | 282 kts | 258° |
| 2026-04-26 16:11 | 42.00257 | 140.77147 | 9034 ft | 279 kts | 258° |
| 2026-04-26 16:11 | 41.99914 | 140.74603 | 8631 ft | 277 kts | 258° |
| 2026-04-26 16:11 | 41.99572 | 140.72084 | 8281 ft | 273 kts | 258° |
| 2026-04-26 16:12 | 41.99232 | 140.69580 | 7942 ft | 269 kts | 258° |
| 2026-04-26 16:12 | 41.98896 | 140.67127 | 7605 ft | 265 kts | 258° |
| 2026-04-26 16:12 | 41.98235 | 140.62306 | 6902 ft | 260 kts | 258° |
| 2026-04-26 16:13 | 41.97911 | 140.59949 | 6557 ft | 258 kts | 258° |
| 2026-04-26 16:13 | 41.97586 | 140.57590 | 6206 ft | 256 kts | 258° |
| 2026-04-26 16:13 | 41.97156 | 140.55296 | 5979 ft | 246 kts | 243° |
| 2026-04-26 16:13 | 41.96054 | 140.53679 | 5919 ft | 232 kts | 212° |
| 2026-04-26 16:14 | 41.94526 | 140.53023 | 5635 ft | 232 kts | 189° |
| 2026-04-26 16:14 | 41.92945 | 140.52779 | 5350 ft | 228 kts | 189° |
| 2026-04-26 16:14 | 41.89920 | 140.52287 | 4850 ft | 210 kts | 189° |
| 2026-04-26 16:15 | 41.88525 | 140.52042 | 4692 ft | 199 kts | 189° |
| 2026-04-26 16:15 | 41.87168 | 140.51800 | 4406 ft | 193 kts | 190° |
| 2026-04-26 16:15 | 41.85843 | 140.51621 | 4150 ft | 188 kts | 181° |
| 2026-04-26 16:16 | 41.83763 | 140.53822 | 3764 ft | 216 kts | 116° |
| 2026-04-26 16:16 | 41.83329 | 140.55740 | 3585 ft | 216 kts | 107° |
| 2026-04-26 16:16 | 41.82971 | 140.57655 | 3398 ft | 206 kts | 108° |
| 2026-04-26 16:16 | 41.82593 | 140.59445 | 3236 ft | 193 kts | 110° |
| 2026-04-26 16:17 | 41.82205 | 140.61110 | 3083 ft | 181 kts | 111° |
| 2026-04-26 16:17 | 41.81810 | 140.62724 | 2870 ft | 171 kts | 112° |
| 2026-04-26 16:17 | 41.81439 | 140.64221 | 2610 ft | 158 kts | 111° |
| 2026-04-26 16:17 | 41.81086 | 140.65639 | 2385 ft | 152 kts | 111° |
| 2026-04-26 16:18 | 41.80751 | 140.66989 | 2166 ft | 145 kts | 111° |
| 2026-04-26 16:18 | 41.80114 | 140.69565 | 1797 ft | 143 kts | 110° |
| 2026-04-26 16:19 | 41.79491 | 140.72098 | 1424 ft | 142 kts | 109° |
| 2026-04-26 16:19 | 41.79188 | 140.73335 | 1234 ft | 141 kts | 109° |
| 2026-04-26 16:19 | 41.78574 | 140.75829 | 843 ft | 140 kts | 108° |
| 2026-04-26 16:20 | 41.78270 | 140.77065 | 644 ft | 139 kts | 107° |
| 2026-04-26 16:20 | 41.77672 | 140.79507 | 289 ft | 139 kts | 107° |
| 2026-04-26 16:20 | 41.77369 | 140.80734 | 122 ft | 138 kts | 105° |
| 2026-04-26 16:21 | 41.77107 | 140.81828 | 112 ft | 89 kts | 107° |
| 2026-04-26 16:21 | 41.76974 | 140.82381 | 110 ft | 52 kts | 108° |
| 2026-04-26 16:21 | 41.76901 | 140.82692 | 119 ft | 19 kts | 96° |
| 2026-04-26 16:21 | 41.76974 | 140.82787 | 126 ft | 14 kts | 17° |
| 2026-04-26 16:22 | 41.77058 | 140.82747 | 125 ft | 16 kts | 297° |
| 2026-04-26 16:22 | 41.77104 | 140.82573 | 117 ft | 22 kts | 290° |
| 2026-04-26 16:22 | 41.77156 | 140.82352 | 113 ft | 25 kts | 287° |
| 2026-04-26 16:22 | 41.77211 | 140.82127 | 113 ft | 24 kts | 287° |
| 2026-04-26 16:23 | 41.77261 | 140.81918 | 116 ft | 22 kts | 289° |
| 2026-04-26 16:23 | 41.77309 | 140.81726 | 116 ft | 21 kts | 289° |
| 2026-04-26 16:23 | 41.77348 | 140.81587 | 115 ft | 11 kts | 305° |
| 2026-04-26 16:23 | 41.77414 | 140.81586 | 116 ft | 7 kts | 20° |
| 2026-04-26 16:24 | 41.77455 | 140.81604 | 118 ft | 4 kts | 17° |
| 2026-04-26 16:24 | 41.77471 | 140.81612 | 119 ft | 0 kts | 18° |
| 2026-04-26 16:24 | 41.77474 | 140.81612 | 119 ft | 1 kts | 17° |
| 2026-04-26 16:24 | 41.77477 | 140.81613 | 120 ft | 0 kts | 17° |